Time;durP1;ratioP1;P1;durP2;ratioP2;P2;SDS_P1;SDS_P2;PMS_P1;PMS_P2;Temp;Humidity;BMP_temperature;BMP_pressure;BME280_temperature;BME280_humidity;BME280_pressure;Samples;Min_cycle;Max_cycle;Signal;HPM_P1;HPM_P2
2023/02/05 00:00:19;;;;;;;30.10;17.63;;;;;;;;;;5107372;27;20710;-70
2023/02/05 00:02:45;;;;;;;26.80;16.20;;;;;;;;;;5106759;28;20199;-72
2023/02/05 00:05:10;;;;;;;29.03;17.30;;;;;;;;;;5096884;27;20764;-70
2023/02/05 00:07:35;;;;;;;33.63;18.27;;;;;;;;;;5106645;28;20641;-72
2023/02/05 00:10:00;;;;;;;30.50;16.83;;;;;;;;;;5105962;27;20529;-72
2023/02/05 00:12:26;;;;;;;29.20;17.80;;;;;;;;;;5106800;27;20187;-70
2023/02/05 00:14:51;;;;;;;32.07;17.67;;;;;;;;;;5106868;27;20664;-70
2023/02/05 00:17:16;;;;;;;27.93;17.33;;;;;;;;;;5106300;27;20606;-70
2023/02/05 00:19:41;;;;;;;26.97;17.40;;;;;;;;;;5104533;27;20725;-73
2023/02/05 00:22:06;;;;;;;34.13;17.70;;;;;;;;;;5099488;27;20215;-72
2023/02/05 00:24:32;;;;;;;28.57;17.90;;;;;;;;;;5100606;22;20319;-70
2023/02/05 00:26:57;;;;;;;33.77;16.23;;;;;;;;;;5084967;28;20179;-69
2023/02/05 00:29:22;;;;;;;25.67;16.60;;;;;;;;;;5092578;28;20172;-69
2023/02/05 00:31:48;;;;;;;30.80;17.97;;;;;;;;;;5090546;28;20187;-70
2023/02/05 00:34:13;;;;;;;28.37;17.60;;;;;;;;;;5082100;28;20202;-70
2023/02/05 00:36:39;;;;;;;29.63;17.83;;;;;;;;;;5107824;28;20267;-69
2023/02/05 00:39:04;;;;;;;24.67;15.50;;;;;;;;;;5105577;28;20567;-70
2023/02/05 00:41:29;;;;;;;27.60;17.30;;;;;;;;;;5101411;27;20287;-69
2023/02/05 00:43:54;;;;;;;28.03;16.00;;;;;;;;;;5104615;28;20195;-70
2023/02/05 00:46:20;;;;;;;25.93;16.53;;;;;;;;;;5104428;28;20175;-70
2023/02/05 00:48:45;;;;;;;29.90;17.73;;;;;;;;;;5102419;28;20194;-70
2023/02/05 00:51:10;;;;;;;30.60;16.17;;;;;;;;;;5083336;28;20206;-70
2023/02/05 00:53:35;;;;;;;28.63;15.47;;;;;;;;;;5101477;28;20200;-68
2023/02/05 00:56:01;;;;;;;30.20;16.20;;;;;;;;;;5103851;28;20187;-70
2023/02/05 00:58:26;;;;;;;27.50;16.93;;;;;;;;;;5101874;28;20292;-69
2023/02/05 01:00:52;;;;;;;25.70;15.40;;;;;;;;;;5102497;28;20578;-69
2023/02/05 01:03:17;;;;;;;24.17;15.67;;;;;;;;;;5098164;28;20230;-68
2023/02/05 01:05:42;;;;;;;25.60;15.73;;;;;;;;;;5102926;28;20183;-69
2023/02/05 01:08:09;;;;;;;29.03;16.67;;;;;;;;;;5101888;28;20184;-70
2023/02/05 01:10:36;;;;;;;28.17;15.37;;;;;;;;;;5106053;28;20183;-69
2023/02/05 01:13:01;;;;;;;29.53;14.80;;;;;;;;;;5100724;28;20199;-69
2023/02/05 01:15:26;;;;;;;25.10;15.70;;;;;;;;;;5103138;28;20664;-70
2023/02/05 01:17:51;;;;;;;28.37;16.20;;;;;;;;;;5104173;28;20637;-69
2023/02/05 01:20:16;;;;;;;28.87;17.10;;;;;;;;;;5101654;28;20200;-70
2023/02/05 01:22:42;;;;;;;25.50;15.40;;;;;;;;;;5106047;28;20688;-70
2023/02/05 01:25:07;;;;;;;26.53;14.60;;;;;;;;;;5104118;28;20555;-70
2023/02/05 01:27:33;;;;;;;25.77;14.70;;;;;;;;;;5107306;28;20215;-69
2023/02/05 01:29:58;;;;;;;26.03;14.50;;;;;;;;;;5105600;28;20182;-70
2023/02/05 01:32:23;;;;;;;23.30;15.20;;;;;;;;;;5111288;28;20632;-69
2023/02/05 01:34:49;;;;;;;25.30;14.17;;;;;;;;;;5103694;28;20216;-70
2023/02/05 01:37:14;;;;;;;26.43;14.30;;;;;;;;;;5105660;28;20175;-69
2023/02/05 01:39:39;;;;;;;24.60;14.37;;;;;;;;;;5108505;27;20217;-69
2023/02/05 01:42:18;;;;;;;22.80;14.17;;;;;;;;;;5104486;28;20704;-69
2023/02/05 01:44:44;;;;;;;25.50;13.97;;;;;;;;;;5098027;28;20199;-69
2023/02/05 01:47:09;;;;;;;21.97;12.70;;;;;;;;;;5100892;28;20250;-69
2023/02/05 01:49:37;;;;;;;21.63;13.23;;;;;;;;;;5102192;28;20179;-68
2023/02/05 01:52:05;;;;;;;19.07;12.20;;;;;;;;;;5101890;28;20180;-69
2023/02/05 01:54:32;;;;;;;22.00;13.37;;;;;;;;;;5082293;28;20226;-69
2023/02/05 01:57:02;;;;;;;22.13;13.17;;;;;;;;;;5104337;28;20274;-69
2023/02/05 01:59:28;;;;;;;21.60;11.50;;;;;;;;;;5100211;28;20649;-69
2023/02/05 02:01:54;;;;;;;20.10;12.67;;;;;;;;;;5103131;28;20282;-69
2023/02/05 02:04:25;;;;;;;18.27;11.83;;;;;;;;;;5096740;28;20295;-70
2023/02/05 02:06:51;;;;;;;19.00;11.57;;;;;;;;;;5100243;28;20656;-69
2023/02/05 02:09:16;;;;;;;16.97;11.20;;;;;;;;;;5100941;28;20172;-69
2023/02/05 02:11:42;;;;;;;19.03;10.87;;;;;;;;;;5100101;28;20183;-69
2023/02/05 02:14:08;;;;;;;20.37;12.63;;;;;;;;;;5101768;28;20202;-68
2023/02/05 02:16:35;;;;;;;17.43;11.20;;;;;;;;;;5101759;28;20176;-69
2023/02/05 02:19:01;;;;;;;20.00;10.83;;;;;;;;;;5101661;28;20259;-69
2023/02/05 02:21:35;;;;;;;19.40;11.53;;;;;;;;;;5103622;28;20377;-70
2023/02/05 02:24:13;;;;;;;19.27;10.20;;;;;;;;;;5103874;28;20204;-70
2023/02/05 02:26:41;;;;;;;16.07;10.37;;;;;;;;;;5109846;28;20180;-69
2023/02/05 02:29:08;;;;;;;17.47;10.70;;;;;;;;;;5101940;28;20183;-70
2023/02/05 02:31:38;;;;;;;18.87;11.23;;;;;;;;;;5107484;28;20522;-70
2023/02/05 02:34:07;;;;;;;15.27;9.93;;;;;;;;;;5107807;28;20208;-70
2023/02/05 02:36:37;;;;;;;16.97;9.10;;;;;;;;;;5100159;28;20191;-70
2023/02/05 02:39:12;;;;;;;17.40;9.13;;;;;;;;;;5110944;28;20542;-70
2023/02/05 02:41:52;;;;;;;16.53;8.53;;;;;;;;;;5111271;28;20199;-70
2023/02/05 02:44:20;;;;;;;13.10;8.20;;;;;;;;;;5105893;28;20236;-70
2023/02/05 02:46:47;;;;;;;17.50;8.53;;;;;;;;;;5106277;28;20179;-69
2023/02/05 02:49:20;;;;;;;14.60;7.83;;;;;;;;;;5102273;28;20167;-68
2023/02/05 02:51:47;;;;;;;14.30;8.33;;;;;;;;;;5101669;28;20215;-69
2023/02/05 02:54:14;;;;;;;9.43;6.70;;;;;;;;;;5101446;28;20203;-70
2023/02/05 02:56:40;;;;;;;12.67;7.90;;;;;;;;;;5102295;28;20176;-70
2023/02/05 02:59:11;;;;;;;12.27;7.93;;;;;;;;;;5105475;28;20189;-69
2023/02/05 03:01:37;;;;;;;11.80;7.23;;;;;;;;;;5104060;28;20666;-69
2023/02/05 03:04:23;;;;;;;12.10;6.23;;;;;;;;;;5105697;28;20207;-70
2023/02/05 03:06:50;;;;;;;8.90;6.10;;;;;;;;;;5080940;28;20848;-70
2023/02/05 03:09:34;;;;;;;8.20;5.27;;;;;;;;;;5086519;28;20168;-70
2023/02/05 03:11:59;;;;;;;8.67;5.80;;;;;;;;;;5104622;28;20491;-69
2023/02/05 03:14:24;;;;;;;9.80;5.77;;;;;;;;;;5104290;28;20198;-70
2023/02/05 03:16:51;;;;;;;11.47;6.53;;;;;;;;;;5105242;28;20171;-68
2023/02/05 03:19:16;;;;;;;12.97;6.13;;;;;;;;;;5107126;27;20187;-70
2023/02/05 03:21:45;;;;;;;13.10;6.43;;;;;;;;;;5111921;27;20611;-70
2023/02/05 03:24:10;;;;;;;11.13;5.80;;;;;;;;;;5106917;28;20272;-69
2023/02/05 03:26:37;;;;;;;11.33;5.70;;;;;;;;;;5110453;28;20629;-70
2023/02/05 03:29:03;;;;;;;8.47;5.57;;;;;;;;;;5119245;27;20255;-69
2023/02/05 03:31:51;;;;;;;9.03;5.07;;;;;;;;;;5115549;27;20684;-69
2023/02/05 03:34:22;;;;;;;10.17;5.40;;;;;;;;;;5118208;27;20234;-69
2023/02/05 03:36:48;;;;;;;7.70;4.80;;;;;;;;;;5112891;27;20177;-70
2023/02/05 03:39:19;;;;;;;8.40;5.53;;;;;;;;;;5110686;27;20183;-69
2023/02/05 03:41:56;;;;;;;8.17;4.60;;;;;;;;;;5110339;27;20195;-69
2023/02/05 03:44:36;;;;;;;11.33;5.40;;;;;;;;;;5109596;27;20199;-69
2023/02/05 03:47:04;;;;;;;8.97;5.20;;;;;;;;;;5108133;28;20191;-69
2023/02/05 03:49:39;;;;;;;5.70;4.03;;;;;;;;;;5111473;28;20665;-69
2023/02/05 03:52:14;;;;;;;10.27;5.23;;;;;;;;;;5117081;27;20464;-70
2023/02/05 03:54:59;;;;;;;9.53;5.83;;;;;;;;;;5108597;27;20190;-69
2023/02/05 03:57:31;;;;;;;7.03;3.90;;;;;;;;;;5110572;28;20167;-68
2023/02/05 03:59:56;;;;;;;10.97;4.60;;;;;;;;;;5114989;27;20190;-68
2023/02/05 04:02:22;;;;;;;6.80;4.37;;;;;;;;;;5111255;27;20194;-69
2023/02/05 04:04:47;;;;;;;9.00;3.80;;;;;;;;;;5111785;28;20187;-71
2023/02/05 04:07:13;;;;;;;8.77;4.10;;;;;;;;;;5089683;28;20187;-67
2023/02/05 04:09:38;;;;;;;8.90;4.60;;;;;;;;;;5108103;28;20183;-69
2023/02/05 04:12:03;;;;;;;7.73;4.37;;;;;;;;;;5104451;28;20187;-69
2023/02/05 04:14:29;;;;;;;7.53;4.53;;;;;;;;;;5115008;27;20195;-69
2023/02/05 04:16:54;;;;;;;8.70;5.63;;;;;;;;;;5111204;27;20175;-69
2023/02/05 04:19:19;;;;;;;9.60;4.93;;;;;;;;;;5108920;27;20187;-70
2023/02/05 04:21:44;;;;;;;6.70;4.97;;;;;;;;;;5108216;27;20199;-70
2023/02/05 04:24:09;;;;;;;9.40;4.47;;;;;;;;;;5114500;27;20276;-70
2023/02/05 04:26:35;;;;;;;9.67;4.87;;;;;;;;;;5112459;27;20184;-70
2023/02/05 04:29:00;;;;;;;8.23;5.27;;;;;;;;;;5114512;27;20179;-71
2023/02/05 04:31:25;;;;;;;10.20;5.43;;;;;;;;;;5110273;28;20188;-71
2023/02/05 04:33:50;;;;;;;13.17;6.23;;;;;;;;;;5112161;28;20231;-70
2023/02/05 04:36:15;;;;;;;12.03;5.57;;;;;;;;;;5112519;27;20186;-71
2023/02/05 04:38:41;;;;;;;8.97;5.03;;;;;;;;;;5108365;28;20178;-69
2023/02/05 04:41:07;;;;;;;10.60;5.60;;;;;;;;;;5110824;27;20469;-71
2023/02/05 04:43:32;;;;;;;12.27;6.47;;;;;;;;;;5114275;27;20223;-70
2023/02/05 04:45:57;;;;;;;13.90;5.97;;;;;;;;;;5110804;28;20233;-70
2023/02/05 04:48:22;;;;;;;13.20;5.80;;;;;;;;;;5104390;27;20309;-70
2023/02/05 04:50:47;;;;;;;10.90;6.17;;;;;;;;;;5101978;28;20716;-69
2023/02/05 04:53:13;;;;;;;11.83;6.40;;;;;;;;;;5109853;28;20207;-71
2023/02/05 04:55:38;;;;;;;9.43;6.07;;;;;;;;;;5107408;27;20683;-70
2023/02/05 04:58:03;;;;;;;9.07;5.13;;;;;;;;;;5109305;27;20214;-70
2023/02/05 05:00:28;;;;;;;7.27;4.23;;;;;;;;;;5109896;27;20664;-69
2023/02/05 05:02:54;;;;;;;5.43;3.50;;;;;;;;;;5105998;28;20580;-72
2023/02/05 05:05:19;;;;;;;5.70;3.10;;;;;;;;;;5083119;28;20190;-70
2023/02/05 05:07:44;;;;;;;4.03;2.60;;;;;;;;;;5092695;28;20637;-69
2023/02/05 05:10:10;;;;;;;5.93;2.73;;;;;;;;;;5108724;28;20207;-70
2023/02/05 05:12:35;;;;;;;3.53;2.97;;;;;;;;;;5110535;27;20619;-70
2023/02/05 05:15:00;;;;;;;5.27;2.53;;;;;;;;;;5108368;28;20716;-70
2023/02/05 05:17:26;;;;;;;3.97;2.47;;;;;;;;;;5106887;27;20248;-70
2023/02/05 05:19:51;;;;;;;7.03;2.93;;;;;;;;;;5108116;28;20266;-70
2023/02/05 05:22:17;;;;;;;6.50;2.90;;;;;;;;;;5112894;27;20203;-69
2023/02/05 05:24:42;;;;;;;5.20;2.13;;;;;;;;;;5109481;27;20752;-70
2023/02/05 05:27:08;;;;;;;5.87;2.30;;;;;;;;;;5114790;27;20171;-70
2023/02/05 05:29:34;;;;;;;4.73;2.20;;;;;;;;;;5106233;28;20171;-70
2023/02/05 05:31:59;;;;;;;6.87;1.90;;;;;;;;;;5110693;27;20645;-70
2023/02/05 05:34:24;;;;;;;8.17;2.63;;;;;;;;;;5110094;27;20199;-69
2023/02/05 05:36:49;;;;;;;11.07;3.57;;;;;;;;;;5112620;27;20563;-69
2023/02/05 05:44:42;;;;;;;9.47;1.70;;;;;;;;;;5102966;28;20224;-70
2023/02/05 05:47:07;;;;;;;5.80;1.00;;;;;;;;;;5105365;28;20180;-69
2023/02/05 05:49:33;;;;;;;7.40;1.77;;;;;;;;;;5084076;28;20187;-70
2023/02/05 05:51:58;;;;;;;7.10;2.23;;;;;;;;;;5106478;28;20229;-69
2023/02/05 05:54:23;;;;;;;8.57;1.63;;;;;;;;;;5082538;28;20255;-70
2023/02/05 05:56:48;;;;;;;9.70;1.93;;;;;;;;;;5102539;28;20176;-69
2023/02/05 05:59:14;;;;;;;6.20;1.13;;;;;;;;;;5101188;28;20567;-69
2023/02/05 06:01:39;;;;;;;9.03;1.53;;;;;;;;;;5100264;28;20687;-70
2023/02/05 06:04:04;;;;;;;6.70;1.47;;;;;;;;;;5096611;28;20238;-70
2023/02/05 06:06:29;;;;;;;5.27;1.17;;;;;;;;;;5104625;28;21839;-70
2023/02/05 06:08:54;;;;;;;2.83;1.53;;;;;;;;;;5102350;28;20171;-69
2023/02/05 06:11:20;;;;;;;4.40;1.17;;;;;;;;;;5100948;28;20245;-69
2023/02/05 06:13:45;;;;;;;5.57;0.97;;;;;;;;;;5104717;28;20676;-69
2023/02/05 06:16:10;;;;;;;4.97;1.10;;;;;;;;;;5105299;28;20179;-70
2023/02/05 06:18:35;;;;;;;7.10;1.43;;;;;;;;;;5112400;28;20262;-70
2023/02/05 06:21:02;;;;;;;6.00;1.10;;;;;;;;;;5116210;28;20665;-70
2023/02/05 06:23:27;;;;;;;6.57;1.10;;;;;;;;;;5115209;22;20222;-72
2023/02/05 06:25:52;;;;;;;7.60;1.50;;;;;;;;;;5068781;28;20287;-72
2023/02/05 06:28:18;;;;;;;2.50;1.03;;;;;;;;;;5067120;28;20264;-72
2023/02/05 06:30:43;;;;;;;6.70;1.83;;;;;;;;;;5064132;28;20177;-72
2023/02/05 06:33:11;;;;;;;9.87;1.50;;;;;;;;;;5075484;28;20204;-72
2023/02/05 06:35:36;;;;;;;10.73;1.63;;;;;;;;;;5089490;28;20190;-70
2023/02/05 06:38:01;;;;;;;7.07;1.53;;;;;;;;;;5091853;28;20172;-71
2023/02/05 06:40:27;;;;;;;8.53;1.50;;;;;;;;;;5086427;28;20665;-72
2023/02/05 06:42:52;;;;;;;9.17;1.30;;;;;;;;;;5093491;28;20671;-71
2023/02/05 06:45:17;;;;;;;5.90;1.47;;;;;;;;;;5090819;28;20192;-70
2023/02/05 06:47:43;;;;;;;4.50;1.27;;;;;;;;;;5089894;28;20212;-71
2023/02/05 06:50:08;;;;;;;5.07;1.40;;;;;;;;;;5076655;28;20181;-71
2023/02/05 06:52:33;;;;;;;7.70;1.43;;;;;;;;;;5085926;28;20177;-71
2023/02/05 06:54:59;;;;;;;11.80;1.33;;;;;;;;;;5092326;28;20215;-72
2023/02/05 06:57:24;;;;;;;8.23;1.30;;;;;;;;;;5090767;28;20173;-71
2023/02/05 06:59:49;;;;;;;11.63;2.30;;;;;;;;;;5091095;28;20366;-71
2023/02/05 07:02:14;;;;;;;5.73;1.87;;;;;;;;;;5085190;28;20570;-71
2023/02/05 07:04:39;;;;;;;4.73;1.33;;;;;;;;;;5088655;28;20200;-71
2023/02/05 07:07:05;;;;;;;9.10;1.67;;;;;;;;;;5088198;28;20172;-71
2023/02/05 07:09:30;;;;;;;7.13;1.20;;;;;;;;;;5084928;28;20184;-70
2023/02/05 07:11:55;;;;;;;4.87;1.37;;;;;;;;;;5085413;28;20172;-71
2023/02/05 07:14:20;;;;;;;10.77;1.70;;;;;;;;;;5073244;28;20196;-71
2023/02/05 07:16:46;;;;;;;9.90;2.03;;;;;;;;;;5093610;28;20184;-71
2023/02/05 07:19:11;;;;;;;7.50;1.80;;;;;;;;;;5088686;28;20187;-71
2023/02/05 07:21:36;;;;;;;12.63;2.60;;;;;;;;;;5074484;28;20698;-70
2023/02/05 07:24:02;;;;;;;15.77;3.77;;;;;;;;;;5089320;28;20217;-71
2023/02/05 07:26:27;;;;;;;7.40;1.30;;;;;;;;;;5093019;28;20188;-70
2023/02/05 07:28:52;;;;;;;10.57;1.80;;;;;;;;;;5088803;28;20165;-71
2023/02/05 07:31:18;;;;;;;7.73;2.33;;;;;;;;;;5093877;28;20176;-71
2023/02/05 07:33:43;;;;;;;7.57;1.40;;;;;;;;;;5092588;28;20200;-71
2023/02/05 07:36:10;;;;;;;7.57;1.63;;;;;;;;;;5088474;28;20188;-71
2023/02/05 07:38:36;;;;;;;6.23;1.57;;;;;;;;;;5092792;28;20247;-71
2023/02/05 07:41:06;;;;;;;5.83;1.27;;;;;;;;;;5094136;28;20192;-71
2023/02/05 07:43:31;;;;;;;7.90;1.83;;;;;;;;;;5088437;28;20196;-71
2023/02/05 07:45:57;;;;;;;4.97;1.13;;;;;;;;;;5069912;28;20172;-71
2023/02/05 07:48:22;;;;;;;9.03;1.40;;;;;;;;;;5091914;28;20171;-71
2023/02/05 07:50:47;;;;;;;6.50;1.60;;;;;;;;;;5086765;28;20275;-71
2023/02/05 07:53:13;;;;;;;8.40;1.87;;;;;;;;;;5087656;28;20173;-71
2023/02/05 07:55:38;;;;;;;9.20;2.17;;;;;;;;;;5092817;28;20169;-73
2023/02/05 07:58:03;;;;;;;10.73;1.73;;;;;;;;;;5065977;28;20180;-72
2023/02/05 08:00:28;;;;;;;7.87;2.40;;;;;;;;;;5085909;28;20180;-71
2023/02/05 08:02:53;;;;;;;10.53;1.90;;;;;;;;;;5085791;28;20677;-71
2023/02/05 08:05:19;;;;;;;10.93;2.17;;;;;;;;;;5094866;28;20212;-72
2023/02/05 08:07:44;;;;;;;10.23;2.33;;;;;;;;;;5088431;28;20168;-72
2023/02/05 08:10:12;;;;;;;10.13;1.70;;;;;;;;;;5090314;28;20176;-72
2023/02/05 08:12:37;;;;;;;15.57;3.43;;;;;;;;;;5071969;28;20184;-72
2023/02/05 08:15:02;;;;;;;10.30;2.53;;;;;;;;;;5090484;28;20200;-72
2023/02/05 08:17:27;;;;;;;12.97;2.50;;;;;;;;;;5090520;28;20195;-71
2023/02/05 08:19:52;;;;;;;16.53;2.70;;;;;;;;;;5092269;28;20175;-72
2023/02/05 08:22:18;;;;;;;10.53;2.40;;;;;;;;;;5094445;28;20238;-72
2023/02/05 08:24:43;;;;;;;14.87;2.67;;;;;;;;;;5090676;28;20208;-72
2023/02/05 08:27:08;;;;;;;17.27;3.23;;;;;;;;;;5094882;28;20172;-72
2023/02/05 08:29:33;;;;;;;11.97;2.70;;;;;;;;;;5077653;28;20228;-72
2023/02/05 08:31:59;;;;;;;14.90;2.73;;;;;;;;;;5086831;28;20176;-71
2023/02/05 08:34:24;;;;;;;18.13;2.97;;;;;;;;;;5085205;28;20439;-71
2023/02/05 08:36:49;;;;;;;11.57;2.53;;;;;;;;;;5089870;28;20649;-71
2023/02/05 08:39:14;;;;;;;17.47;3.53;;;;;;;;;;5088590;28;20557;-71
2023/02/05 08:41:39;;;;;;;17.73;3.30;;;;;;;;;;5084838;28;20200;-71
2023/02/05 08:44:05;;;;;;;30.47;6.47;;;;;;;;;;5072765;28;20697;-71
2023/02/05 08:46:30;;;;;;;20.30;4.83;;;;;;;;;;5087388;28;20173;-70
2023/02/05 08:48:55;;;;;;;15.73;3.63;;;;;;;;;;5088302;28;20293;-72
2023/02/05 08:51:21;;;;;;;14.20;3.17;;;;;;;;;;5085814;28;20533;-72
2023/02/05 08:53:47;;;;;;;13.87;2.50;;;;;;;;;;5087035;28;20291;-71
2023/02/05 08:56:12;;;;;;;14.73;3.13;;;;;;;;;;5086262;28;20267;-71
2023/02/05 08:58:38;;;;;;;13.07;3.80;;;;;;;;;;5063851;28;20669;-71
2023/02/05 09:01:05;;;;;;;15.20;3.73;;;;;;;;;;5085285;28;20200;-71
2023/02/05 09:03:31;;;;;;;18.53;3.33;;;;;;;;;;5081416;28;20700;-70
2023/02/05 09:05:56;;;;;;;15.13;2.93;;;;;;;;;;5092949;28;20203;-71
2023/02/05 09:08:22;;;;;;;22.23;4.30;;;;;;;;;;5087228;28;20207;-71
2023/02/05 09:10:47;;;;;;;20.13;3.50;;;;;;;;;;5085277;28;20507;-71
2023/02/05 09:13:13;;;;;;;23.33;3.60;;;;;;;;;;5089259;28;20184;-71
2023/02/05 09:15:45;;;;;;;13.73;4.77;;;;;;;;;;5070523;28;20542;-72
2023/02/05 09:18:10;;;;;;;18.53;3.43;;;;;;;;;;5068503;28;20547;-71
2023/02/05 09:20:46;;;;;;;21.40;3.67;;;;;;;;;;5064834;28;20180;-71
2023/02/05 09:23:13;;;;;;;15.97;3.03;;;;;;;;;;5069576;28;20262;-71
2023/02/05 09:25:41;;;;;;;18.73;3.70;;;;;;;;;;5055239;28;20173;-73
2023/02/05 09:28:08;;;;;;;21.03;4.37;;;;;;;;;;5063239;28;20232;-71
2023/02/05 09:30:40;;;;;;;17.77;3.60;;;;;;;;;;5060641;28;20181;-72
2023/02/05 09:33:05;;;;;;;11.27;3.57;;;;;;;;;;5062182;28;20197;-72
2023/02/05 09:35:31;;;;;;;22.93;3.70;;;;;;;;;;5067003;28;20188;-71
2023/02/05 09:37:56;;;;;;;14.10;3.53;;;;;;;;;;5067373;28;20227;-72
2023/02/05 09:40:23;;;;;;;26.17;3.73;;;;;;;;;;5067920;28;20174;-71
2023/02/05 09:43:02;;;;;;;14.13;3.17;;;;;;;;;;5059302;28;20184;-72
2023/02/05 09:45:30;;;;;;;21.27;4.03;;;;;;;;;;5066326;28;20184;-72
2023/02/05 09:48:02;;;;;;;13.63;3.03;;;;;;;;;;5062048;28;20198;-72
2023/02/05 09:50:28;;;;;;;11.77;3.27;;;;;;;;;;5067634;28;20177;-73
2023/02/05 09:52:58;;;;;;;15.07;4.13;;;;;;;;;;5069037;28;20552;-70
2023/02/05 09:55:25;;;;;;;16.17;3.00;;;;;;;;;;5067587;28;20210;-72
2023/02/05 09:57:52;;;;;;;17.13;3.70;;;;;;;;;;5068795;28;20643;-71
2023/02/05 10:00:20;;;;;;;12.23;3.30;;;;;;;;;;5068111;28;20185;-72
2023/02/05 10:02:49;;;;;;;14.73;3.37;;;;;;;;;;5069380;28;20223;-73
2023/02/05 10:05:15;;;;;;;16.53;3.63;;;;;;;;;;5065055;28;20706;-70
2023/02/05 10:07:50;;;;;;;17.53;2.93;;;;;;;;;;5066400;28;20178;-73
2023/02/05 10:10:21;;;;;;;17.47;3.37;;;;;;;;;;5065104;28;20191;-70
2023/02/05 10:12:49;;;;;;;13.73;3.67;;;;;;;;;;5067984;28;20181;-70
2023/02/05 10:15:14;;;;;;;12.80;3.33;;;;;;;;;;5065688;28;20209;-69
2023/02/05 10:17:46;;;;;;;20.47;3.97;;;;;;;;;;5064747;28;20185;-69
2023/02/05 10:20:21;;;;;;;20.23;4.23;;;;;;;;;;5064235;28;20240;-70
2023/02/05 10:22:46;;;;;;;16.50;3.00;;;;;;;;;;5055213;28;20704;-69
2023/02/05 10:25:12;;;;;;;19.40;2.97;;;;;;;;;;5064517;28;20240;-69
2023/02/05 10:28:00;;;;;;;24.00;5.07;;;;;;;;;;5054565;28;20268;-70
2023/02/05 10:30:29;;;;;;;24.13;4.87;;;;;;;;;;5048660;28;20582;-72
2023/02/05 10:32:59;;;;;;;15.43;3.20;;;;;;;;;;5048213;28;20226;-70
2023/02/05 10:35:38;;;;;;;15.73;3.53;;;;;;;;;;5049244;28;20198;-70
2023/02/05 10:38:09;;;;;;;11.77;2.73;;;;;;;;;;5040657;28;20184;-72
2023/02/05 10:40:40;;;;;;;17.13;4.10;;;;;;;;;;5045870;28;20185;-72
2023/02/05 10:43:20;;;;;;;17.30;3.77;;;;;;;;;;5046653;28;20208;-71
2023/02/05 10:45:46;;;;;;;12.53;3.07;;;;;;;;;;5048671;28;20182;-71
2023/02/05 10:48:30;;;;;;;17.03;3.63;;;;;;;;;;5042470;28;20185;-71
2023/02/05 10:51:03;;;;;;;19.63;4.63;;;;;;;;;;5048461;28;20244;-71
2023/02/05 10:53:29;;;;;;;12.27;3.63;;;;;;;;;;5042158;28;20387;-71
2023/02/05 10:55:56;;;;;;;20.53;3.27;;;;;;;;;;5045617;28;20568;-71
2023/02/05 10:58:21;;;;;;;18.27;2.90;;;;;;;;;;5040215;28;20185;-71
2023/02/05 11:00:46;;;;;;;23.27;4.27;;;;;;;;;;5048134;28;20498;-71
2023/02/05 11:03:15;;;;;;;25.03;3.80;;;;;;;;;;5046998;28;20190;-72
2023/02/05 11:05:40;;;;;;;17.13;3.87;;;;;;;;;;5047536;28;20216;-72
2023/02/05 11:08:25;;;;;;;17.27;6.10;;;;;;;;;;5044239;28;20170;-71
2023/02/05 11:10:51;;;;;;;29.57;5.80;;;;;;;;;;5047607;28;20189;-72
2023/02/05 11:13:18;;;;;;;16.53;3.70;;;;;;;;;;5052390;28;20186;-71
2023/02/05 11:15:52;;;;;;;11.63;3.73;;;;;;;;;;5048786;28;20730;-72
2023/02/05 11:18:21;;;;;;;17.30;4.70;;;;;;;;;;5044255;28;20181;-71
2023/02/05 11:20:53;;;;;;;17.10;3.40;;;;;;;;;;5044037;28;20232;-71
2023/02/05 11:23:20;;;;;;;13.83;2.90;;;;;;;;;;5048586;28;20227;-71
2023/02/05 11:25:53;;;;;;;18.23;3.57;;;;;;;;;;5045142;28;20259;-71
2023/02/05 11:28:23;;;;;;;15.60;3.90;;;;;;;;;;5049866;28;20192;-71
2023/02/05 11:30:48;;;;;;;13.43;3.20;;;;;;;;;;5043157;28;20185;-71
2023/02/05 11:33:20;;;;;;;15.13;3.40;;;;;;;;;;5047926;28;20782;-71
2023/02/05 11:36:04;;;;;;;15.23;4.83;;;;;;;;;;5045822;28;20750;-71
2023/02/05 11:38:29;;;;;;;20.33;4.10;;;;;;;;;;5049143;28;20260;-72
2023/02/05 11:40:56;;;;;;;12.47;3.40;;;;;;;;;;5052859;28;20193;-71
2023/02/05 11:43:39;;;;;;;21.53;4.20;;;;;;;;;;5043032;28;20198;-71
2023/02/05 11:46:09;;;;;;;11.90;2.80;;;;;;;;;;5047697;28;20598;-71
2023/02/05 11:48:42;;;;;;;13.50;2.90;;;;;;;;;;5048647;28;20174;-71
2023/02/05 11:51:09;;;;;;;15.97;2.73;;;;;;;;;;5044956;28;20185;-71
2023/02/05 11:53:36;;;;;;;23.40;5.83;;;;;;;;;;5046316;28;20250;-72
2023/02/05 11:56:04;;;;;;;16.37;4.20;;;;;;;;;;5042217;28;20219;-72
2023/02/05 11:58:30;;;;;;;16.87;3.43;;;;;;;;;;5043853;28;20174;-71
2023/02/05 12:01:00;;;;;;;12.97;2.87;;;;;;;;;;5050521;28;20213;-71
2023/02/05 12:03:28;;;;;;;12.40;2.87;;;;;;;;;;5039642;28;20324;-71
2023/02/05 12:05:55;;;;;;;11.17;2.80;;;;;;;;;;5040528;28;20268;-71
2023/02/05 12:08:30;;;;;;;11.13;3.00;;;;;;;;;;5040847;28;20185;-72
2023/02/05 12:10:59;;;;;;;15.37;3.13;;;;;;;;;;5048559;28;20179;-72
2023/02/05 12:13:43;;;;;;;11.93;2.47;;;;;;;;;;5046299;28;20201;-71
2023/02/05 12:16:17;;;;;;;16.83;2.80;;;;;;;;;;5042878;28;20253;-71
2023/02/05 12:18:54;;;;;;;13.20;2.83;;;;;;;;;;5036982;28;20257;-72
2023/02/05 12:21:38;;;;;;;14.67;2.90;;;;;;;;;;5045323;28;20173;-73
2023/02/05 12:24:22;;;;;;;15.87;3.70;;;;;;;;;;5040216;28;20671;-72
2023/02/05 12:26:48;;;;;;;14.67;2.60;;;;;;;;;;5043431;28;20195;-72
2023/02/05 12:29:26;;;;;;;15.43;3.17;;;;;;;;;;5049667;28;20631;-70
2023/02/05 12:32:18;;;;;;;12.17;3.00;;;;;;;;;;5038641;28;20185;-70
2023/02/05 12:35:01;;;;;;;9.50;2.53;;;;;;;;;;5044544;28;20236;-70
2023/02/05 12:37:33;;;;;;;15.70;2.83;;;;;;;;;;5048996;28;20174;-71
2023/02/05 12:40:19;;;;;;;11.87;3.10;;;;;;;;;;5052159;28;20219;-71
2023/02/05 12:42:49;;;;;;;18.47;3.17;;;;;;;;;;5043276;28;20213;-71
2023/02/05 12:45:14;;;;;;;11.30;2.37;;;;;;;;;;5043510;28;20739;-72
2023/02/05 12:47:42;;;;;;;10.93;4.00;;;;;;;;;;5051943;28;20216;-71
2023/02/05 12:50:26;;;;;;;11.93;2.73;;;;;;;;;;5040742;28;20174;-71
2023/02/05 12:52:51;;;;;;;12.67;4.20;;;;;;;;;;5042746;28;20278;-71
2023/02/05 12:55:24;;;;;;;13.20;2.67;;;;;;;;;;5045013;28;20297;-71
2023/02/05 12:57:51;;;;;;;10.83;3.37;;;;;;;;;;5050477;28;20170;-71
2023/02/05 13:00:26;;;;;;;11.63;3.20;;;;;;;;;;5050371;28;20178;-71
2023/02/05 13:02:51;;;;;;;11.97;2.17;;;;;;;;;;5044813;28;20708;-71
2023/02/05 13:05:29;;;;;;;13.10;2.87;;;;;;;;;;5051205;28;20201;-71
2023/02/05 13:07:58;;;;;;;12.00;3.17;;;;;;;;;;5045900;28;20615;-72
2023/02/05 13:10:29;;;;;;;15.33;3.00;;;;;;;;;;5050498;28;20174;-71
2023/02/05 13:12:59;;;;;;;14.07;3.57;;;;;;;;;;5040866;28;20238;-70
2023/02/05 13:15:28;;;;;;;15.40;3.90;;;;;;;;;;5040867;28;20209;-70
2023/02/05 13:18:05;;;;;;;7.70;1.83;;;;;;;;;;5035532;28;20257;-70
2023/02/05 13:28:46;;;;;;;15.77;3.13;;;;;;;;;;5042059;28;20184;-70
2023/02/05 13:31:23;;;;;;;10.23;2.80;;;;;;;;;;5036727;28;20655;-71
2023/02/05 13:33:49;;;;;;;11.73;2.63;;;;;;;;;;5038799;28;20197;-72
2023/02/05 13:36:23;;;;;;;13.23;3.10;;;;;;;;;;5036599;28;20181;-72
2023/02/05 13:38:51;;;;;;;12.87;2.83;;;;;;;;;;5038703;28;20277;-71
2023/02/05 13:41:19;;;;;;;19.50;4.23;;;;;;;;;;5044200;28;20166;-71
2023/02/05 13:43:44;;;;;;;19.17;3.03;;;;;;;;;;5040449;28;20227;-71
2023/02/05 13:46:12;;;;;;;17.93;4.00;;;;;;;;;;5041455;28;20587;-71
2023/02/05 13:48:57;;;;;;;11.47;3.20;;;;;;;;;;5036509;28;20624;-71
2023/02/05 13:51:26;;;;;;;13.23;3.53;;;;;;;;;;5046850;28;20186;-71
2023/02/05 13:54:10;;;;;;;18.83;3.37;;;;;;;;;;5048044;28;20198;-71
2023/02/05 13:56:50;;;;;;;15.03;4.60;;;;;;;;;;5041069;28;20181;-71
2023/02/05 13:59:18;;;;;;;20.67;5.07;;;;;;;;;;5041263;28;20178;-71
2023/02/05 14:01:49;;;;;;;11.40;2.73;;;;;;;;;;5042807;28;20170;-70
2023/02/05 14:04:17;;;;;;;11.97;2.97;;;;;;;;;;5040867;28;20729;-71
2023/02/05 14:06:45;;;;;;;16.30;3.73;;;;;;;;;;5044823;28;20185;-71
2023/02/05 14:09:31;;;;;;;16.00;3.07;;;;;;;;;;5036680;28;20186;-70
2023/02/05 14:11:57;;;;;;;13.80;3.67;;;;;;;;;;5047458;28;20198;-71
2023/02/05 14:14:24;;;;;;;15.57;3.57;;;;;;;;;;5046177;28;20449;-71
2023/02/05 14:16:50;;;;;;;15.47;2.93;;;;;;;;;;5044686;28;20185;-70
2023/02/05 14:19:24;;;;;;;10.27;2.57;;;;;;;;;;5043780;28;20178;-71
2023/02/05 14:22:00;;;;;;;13.00;2.50;;;;;;;;;;5047003;28;20166;-70
2023/02/05 14:24:40;;;;;;;17.23;3.00;;;;;;;;;;5043352;28;20220;-70
2023/02/05 14:27:24;;;;;;;17.73;3.63;;;;;;;;;;5039662;28;20206;-71
2023/02/05 14:29:50;;;;;;;17.70;3.50;;;;;;;;;;5042936;28;20181;-70
2023/02/05 14:32:24;;;;;;;19.77;5.27;;;;;;;;;;5042148;28;20607;-70
2023/02/05 14:34:57;;;;;;;18.90;4.93;;;;;;;;;;5050426;28;20689;-69
2023/02/05 14:37:24;;;;;;;20.80;3.30;;;;;;;;;;5045068;28;20181;-72
2023/02/05 14:39:50;;;;;;;14.57;3.67;;;;;;;;;;5045571;28;20581;-69
2023/02/05 14:42:18;;;;;;;17.27;4.13;;;;;;;;;;5039690;28;20182;-69
2023/02/05 14:44:43;;;;;;;10.60;3.47;;;;;;;;;;5045500;28;20230;-69
2023/02/05 14:47:18;;;;;;;16.67;4.13;;;;;;;;;;5048710;28;20259;-70
2023/02/05 14:49:45;;;;;;;19.10;3.53;;;;;;;;;;5042549;28;20379;-70